Rueter, Missouri
Current Conditions -  °F | °C
As of 5:45 PM on Thursday 27 Nov 2014 (Local Time) from KBBG Reporting Station
Few Clouds Few Clouds  
Wind Chill: 32°   Ceiling: Unl
Heat Index: 32°   Visibility: 10mi
Dew Point: 25°   Wind: 0mph
Humidity: 75%   Direction: NA
Pressure: 30.41"   Gusts: NA
Location:  36.61°N, 92.87°W
Report Text: KBBG 272345Z 00000KT 10SM FEW150 00/M04 A3041
Loading
Personal Weather Stations






























Interactive Weather Map New forecast layout! Learn more

10-Day Weather Forecast

Advertisements
Track Severe Weather on mobile